createdAt,value
2022-09-07T00:00:46.158Z,7.93
2022-09-07T00:03:13.802Z,7.00
2022-09-07T00:05:46.845Z,7.53
2022-09-07T00:08:15.561Z,9.57
2022-09-07T00:10:51.429Z,9.17
2022-09-07T00:13:19.250Z,5.00
2022-09-07T00:15:47.152Z,8.80
2022-09-07T00:18:14.705Z,6.07
2022-09-07T00:20:42.129Z,5.83
2022-09-07T00:23:09.501Z,8.07
2022-09-07T00:25:41.148Z,5.97
2022-09-07T00:28:09.538Z,5.30
2022-09-07T00:30:43.286Z,6.97
2022-09-07T00:33:11.713Z,6.23
2022-09-07T00:35:42.778Z,5.27
2022-09-07T00:38:10.189Z,9.33
2022-09-07T00:40:38.012Z,12.03
2022-09-07T00:43:06.534Z,8.37
2022-09-07T00:45:33.818Z,8.23
2022-09-07T00:48:09.083Z,6.60
2022-09-07T00:50:43.867Z,5.30
2022-09-07T00:53:22.616Z,10.50
2022-09-07T00:55:52.222Z,7.40
2022-09-07T00:58:24.379Z,8.57
2022-09-07T01:00:52.558Z,9.47
2022-09-07T01:03:27.703Z,8.77
2022-09-07T01:06:07.037Z,6.40
2022-09-07T01:08:36.281Z,6.57
2022-09-07T01:11:04.104Z,8.23
2022-09-07T01:13:31.987Z,7.67
2022-09-07T01:16:13.366Z,6.80
2022-09-07T01:19:01.737Z,8.23
2022-09-07T01:21:41.104Z,10.77
2022-09-07T01:24:47.215Z,8.93
2022-09-07T01:27:47.088Z,7.30
2022-09-07T01:30:19.129Z,7.03
2022-09-07T01:33:00.841Z,7.20
2022-09-07T01:35:33.841Z,8.67
2022-09-07T01:38:10.418Z,9.23
2022-09-07T01:40:49.888Z,5.83
2022-09-07T01:43:31.513Z,6.20
2022-09-07T01:46:00.631Z,4.20
2022-09-07T01:48:28.402Z,8.30
2022-09-07T01:51:02.985Z,14.57
2022-09-07T01:53:35.384Z,6.87
2022-09-07T01:56:14.248Z,8.90
2022-09-07T01:58:58.154Z,7.83
2022-09-07T02:01:33.551Z,10.00
2022-09-07T02:04:08.055Z,8.00
2022-09-07T02:07:05.942Z,12.03
2022-09-07T02:09:42.451Z,9.10
2022-09-07T02:12:20.932Z,10.63
2022-09-07T02:14:53.278Z,6.53
2022-09-07T02:17:27.491Z,7.40
2022-09-07T02:20:00.316Z,10.80
2022-09-07T02:22:31.548Z,9.40
2022-09-07T02:25:02.146Z,10.67
2022-09-07T02:27:48.932Z,8.73
2022-09-07T02:30:16.991Z,5.77
2022-09-07T02:32:44.782Z,10.10
2022-09-07T02:35:13.076Z,8.63
2022-09-07T02:37:41.990Z,6.60
2022-09-07T02:40:10.495Z,6.77
2022-09-07T02:42:38.725Z,9.70
2022-09-07T02:45:10.364Z,10.00
2022-09-07T02:47:43.596Z,11.30
2022-09-07T02:50:16.882Z,8.80
2022-09-07T02:52:47.227Z,7.13
2022-09-07T02:55:47.935Z,7.70
2022-09-07T02:59:06.349Z,7.27
2022-09-07T03:02:02.797Z,9.50
2022-09-07T03:04:46.776Z,10.67
2022-09-07T03:07:21.141Z,10.63
2022-09-07T03:09:51.790Z,12.00
2022-09-07T03:12:19.617Z,8.07
2022-09-07T03:14:50.172Z,10.17
2022-09-07T03:17:18.051Z,11.63
2022-09-07T03:19:45.387Z,11.33
2022-09-07T03:22:12.727Z,11.10
2022-09-07T03:24:40.533Z,12.80
2022-09-07T03:27:09.603Z,8.77
2022-09-07T03:29:40.257Z,7.33
2022-09-07T03:32:09.287Z,9.83
2022-09-07T03:34:36.749Z,9.90
2022-09-07T03:37:04.601Z,6.87
2022-09-07T03:39:32.334Z,11.83
2022-09-07T03:42:00.078Z,8.30
2022-09-07T03:44:27.470Z,6.80
2022-09-07T03:46:55.036Z,8.50
2022-09-07T03:49:22.348Z,9.47
2022-09-07T03:51:49.646Z,6.53
2022-09-07T03:54:17.012Z,8.43
2022-09-07T03:56:44.420Z,5.50
2022-09-07T03:59:11.904Z,6.40
2022-09-07T04:01:40.310Z,5.07
2022-09-07T04:04:07.784Z,10.63
2022-09-07T04:06:35.400Z,6.23
2022-09-07T04:09:07.778Z,7.50
2022-09-07T04:11:36.575Z,9.20
2022-09-07T04:14:04.501Z,9.67
2022-09-07T04:16:31.806Z,8.17
2022-09-07T04:18:59.643Z,7.17
2022-09-07T04:21:29.288Z,6.90
2022-09-07T04:23:57.109Z,5.60
2022-09-07T04:26:32.806Z,9.90
2022-09-07T04:29:04.159Z,9.67
2022-09-07T04:31:33.249Z,22.17
2022-09-07T04:34:00.772Z,57.97
2022-09-07T04:36:28.836Z,13.50
2022-09-07T04:38:58.140Z,8.47
2022-09-07T04:41:26.208Z,7.93
2022-09-07T04:43:56.676Z,6.47
2022-09-07T04:46:33.990Z,5.60
2022-09-07T04:49:05.260Z,9.40
2022-09-07T04:51:33.740Z,5.07
2022-09-07T04:54:03.130Z,7.93
2022-09-07T04:56:31.608Z,7.23
2022-09-07T04:58:59.883Z,6.10
2022-09-07T05:01:27.474Z,7.53
2022-09-07T05:03:54.926Z,6.53
2022-09-07T05:06:23.161Z,12.40
2022-09-07T05:08:52.652Z,33.57
2022-09-07T05:11:27.766Z,37.97
2022-09-07T05:14:03.938Z,23.37
2022-09-07T05:16:32.373Z,30.60
2022-09-07T05:19:01.820Z,24.27
2022-09-07T05:21:35.304Z,40.07
2022-09-07T05:24:03.399Z,24.77
2022-09-07T05:26:33.268Z,19.80
2022-09-07T05:31:50.413Z,26.17
2022-09-07T05:34:33.434Z,28.20
2022-09-07T05:37:01.766Z,34.53
2022-09-07T05:39:29.646Z,24.17
2022-09-07T05:41:57.352Z,12.03
2022-09-07T05:47:12.305Z,29.97
2022-09-07T05:49:39.784Z,12.27
2022-09-07T05:52:07.358Z,7.13
2022-09-07T05:54:35.115Z,11.23
2022-09-07T05:57:03.882Z,34.17
2022-09-07T05:59:31.396Z,12.90
2022-09-07T06:01:58.914Z,17.53
2022-09-07T06:04:26.413Z,8.07
2022-09-07T06:12:29.452Z,19.33
2022-09-07T06:14:56.831Z,14.90
2022-09-07T06:17:24.297Z,10.93
2022-09-07T06:19:51.612Z,15.33
2022-09-07T06:22:19.210Z,6.17
2022-09-07T06:24:46.886Z,7.23
2022-09-07T06:27:14.428Z,6.23
2022-09-07T06:29:42.234Z,8.70
2022-09-07T06:34:57.458Z,6.77
2022-09-07T06:37:24.918Z,6.37
2022-09-07T06:39:52.284Z,7.10
2022-09-07T06:42:19.729Z,11.83
2022-09-07T06:44:47.396Z,8.87
2022-09-07T06:47:14.749Z,6.00
2022-09-07T06:49:42.409Z,4.47
2022-09-07T06:52:09.792Z,6.97
2022-09-07T06:57:24.857Z,17.47
2022-09-07T06:59:52.221Z,11.60
2022-09-07T07:02:19.929Z,10.00
2022-09-07T07:04:47.297Z,9.27
2022-09-07T07:07:15.446Z,9.03
2022-09-07T07:09:42.952Z,5.37
2022-09-07T07:12:11.376Z,7.30
2022-09-07T07:14:44.049Z,6.33
2022-09-07T07:17:12.652Z,7.20
2022-09-07T07:19:39.960Z,6.53
2022-09-07T07:22:29.186Z,6.87
2022-09-07T07:24:54.694Z,7.27
2022-09-07T07:27:22.364Z,5.83
2022-09-07T07:29:50.223Z,8.93
2022-09-07T07:32:17.746Z,5.87
2022-09-07T07:34:45.252Z,5.83
2022-09-07T07:37:12.455Z,11.33
2022-09-07T07:42:27.538Z,6.90
2022-09-07T07:47:43.342Z,13.45
2022-09-07T07:55:45.988Z,6.20
2022-09-07T07:58:13.303Z,10.85
2022-09-07T08:00:56.631Z,4.97
2022-09-07T08:03:25.510Z,6.43
2022-09-07T08:05:54.059Z,7.53
2022-09-07T08:08:23.390Z,6.68
2022-09-07T08:10:50.889Z,6.43
2022-09-07T08:13:19.507Z,8.05
2022-09-07T08:15:47.276Z,7.13
2022-09-07T08:18:17.414Z,7.00
2022-09-07T08:20:45.126Z,6.22
2022-09-07T08:23:12.653Z,6.18
2022-09-07T08:25:48.893Z,5.45
2022-09-07T08:28:16.228Z,13.73
2022-09-07T08:30:43.981Z,7.03
2022-09-07T08:33:11.364Z,7.38
2022-09-07T08:35:38.610Z,7.75
2022-09-07T08:38:06.109Z,7.70
2022-09-07T08:40:37.516Z,8.05
2022-09-07T08:43:19.427Z,6.40
2022-09-07T08:45:52.269Z,5.00
2022-09-07T08:48:29.596Z,10.10
2022-09-07T08:51:24.229Z,12.38
2022-09-07T08:53:52.128Z,7.80
2022-09-07T08:56:34.519Z,9.35
2022-09-07T08:59:11.663Z,6.20
2022-09-07T09:01:42.826Z,9.02
2022-09-07T09:04:30.817Z,9.13
2022-09-07T09:07:24.491Z,8.60
2022-09-07T09:10:07.773Z,7.32
2022-09-07T09:12:58.968Z,7.93
2022-09-07T09:15:48.743Z,7.63
2022-09-07T09:19:02.050Z,8.63
2022-09-07T09:21:29.318Z,11.95
2022-09-07T09:24:06.515Z,9.32
2022-09-07T09:26:35.673Z,6.30
2022-09-07T09:29:35.257Z,6.95
2022-09-07T09:32:35.311Z,4.78
2022-09-07T09:35:31.809Z,8.07
2022-09-07T09:37:59.253Z,11.32
2022-09-07T09:40:27.874Z,5.53
2022-09-07T09:43:18.742Z,5.95
2022-09-07T09:48:41.944Z,5.95
2022-09-07T09:54:19.976Z,7.00
2022-09-07T09:56:49.268Z,11.80
2022-09-07T10:05:46.313Z,5.00
2022-09-07T10:08:37.391Z,6.50
2022-09-07T10:11:09.819Z,5.60
2022-09-07T10:13:44.674Z,8.60
2022-09-07T10:16:12.186Z,11.00
2022-09-07T10:18:42.127Z,6.55
2022-09-07T10:21:14.315Z,8.73
2022-09-07T10:23:41.957Z,7.15
2022-09-07T10:26:29.199Z,4.75
2022-09-07T10:29:31.942Z,5.65
2022-09-07T10:32:18.837Z,4.35
2022-09-07T10:35:21.483Z,6.28
2022-09-07T10:37:57.726Z,8.45
2022-09-07T10:40:39.326Z,6.40
2022-09-07T10:43:33.256Z,8.35
2022-09-07T10:46:57.677Z,5.57
2022-09-07T10:52:57.088Z,12.75
2022-09-07T10:55:40.418Z,5.45
2022-09-07T10:59:03.274Z,6.88
2022-09-07T11:01:32.152Z,9.18
2022-09-07T11:04:11.518Z,6.70
2022-09-07T11:06:43.326Z,12.68
2022-09-07T11:09:25.541Z,7.18
2022-09-07T11:12:31.289Z,6.43
2022-09-07T11:15:15.255Z,7.78
2022-09-07T11:18:02.801Z,7.78
2022-09-07T11:20:39.810Z,10.77
2022-09-07T11:23:20.934Z,8.07
2022-09-07T11:26:00.559Z,8.52
2022-09-07T11:28:47.400Z,6.07
2022-09-07T11:31:26.506Z,5.85
2022-09-07T11:36:59.092Z,5.15
2022-09-07T11:39:39.563Z,5.50
2022-09-07T11:42:49.658Z,6.28
2022-09-07T11:45:25.768Z,7.03
2022-09-07T11:48:04.353Z,7.68
2022-09-07T11:50:35.764Z,6.68
2022-09-07T11:53:15.018Z,6.50
2022-09-07T11:55:46.842Z,5.43
2022-09-07T11:58:38.510Z,5.68
2022-09-07T12:01:32.793Z,6.60
2022-09-07T12:04:18.397Z,6.13
2022-09-07T12:06:48.869Z,12.45
2022-09-07T12:09:37.419Z,8.27
2022-09-07T12:12:19.940Z,8.02
2022-09-07T12:15:08.189Z,6.82
2022-09-07T12:18:16.777Z,7.82
2022-09-07T12:20:47.236Z,9.82
2022-09-07T12:23:17.369Z,6.15
2022-09-07T12:25:49.360Z,5.35
2022-09-07T12:28:25.918Z,5.68
2022-09-07T12:31:02.014Z,5.55
2022-09-07T12:33:40.595Z,8.75
2022-09-07T12:36:26.476Z,4.53
2022-09-07T12:39:21.172Z,6.45
2022-09-07T12:42:31.821Z,7.18
2022-09-07T12:44:39.532Z,8.85
2022-09-07T12:47:12.794Z,7.85
2022-09-07T12:50:06.170Z,12.52
2022-09-07T12:52:48.094Z,12.35
2022-09-07T12:59:13.832Z,10.07
2022-09-07T13:02:01.093Z,5.90
2022-09-07T13:05:02.384Z,6.93
2022-09-07T13:08:09.002Z,5.13
2022-09-07T13:10:44.503Z,6.70
2022-09-07T13:16:17.817Z,8.02
2022-09-07T13:18:46.783Z,9.57
2022-09-07T13:21:15.268Z,8.25
2022-09-07T13:23:45.494Z,10.13
2022-09-07T13:26:52.091Z,12.70
2022-09-07T13:29:24.073Z,12.55
2022-09-07T13:32:15.861Z,4.75
2022-09-07T13:34:53.440Z,7.45
2022-09-07T13:37:23.484Z,7.65
2022-09-07T13:39:55.013Z,4.88
2022-09-07T13:42:36.643Z,5.28
2022-09-07T13:45:07.586Z,4.93
2022-09-07T13:48:13.254Z,5.03
2022-09-07T13:50:52.457Z,5.00
2022-09-07T13:53:39.927Z,5.25
2022-09-07T13:56:23.705Z,6.43
2022-09-07T13:58:53.339Z,5.15
2022-09-07T14:01:25.946Z,5.82
2022-09-07T14:04:02.535Z,7.18
2022-09-07T14:06:33.241Z,9.30
2022-09-07T14:09:15.920Z,8.55
2022-09-07T14:11:47.403Z,7.20
2022-09-07T14:14:20.636Z,4.70
2022-09-07T14:17:11.483Z,6.13
2022-09-07T14:19:40.092Z,4.90
2022-09-07T14:22:25.397Z,4.63
2022-09-07T14:24:57.369Z,7.63
2022-09-07T14:27:31.874Z,6.07
2022-09-07T14:30:23.989Z,4.65
2022-09-07T14:32:57.657Z,12.52
2022-09-07T14:35:32.743Z,6.03
2022-09-07T14:39:03.892Z,4.53
2022-09-07T14:41:19.292Z,5.03
2022-09-07T14:43:58.123Z,3.80
2022-09-07T14:46:28.581Z,5.40
2022-09-07T14:48:58.817Z,9.13
2022-09-07T14:51:36.117Z,4.43
2022-09-07T14:54:07.094Z,5.28
2022-09-07T14:56:36.861Z,5.38
2022-09-07T14:59:37.024Z,5.45
2022-09-07T15:02:26.674Z,6.30
2022-09-07T15:05:15.691Z,3.75
2022-09-07T15:07:53.348Z,7.22
2022-09-07T15:10:23.845Z,9.57
2022-09-07T15:12:53.419Z,5.03
2022-09-07T15:15:37.371Z,5.50
2022-09-07T15:18:26.787Z,5.82
2022-09-07T15:20:54.180Z,5.32
2022-09-07T15:23:21.692Z,10.80
2022-09-07T15:25:54.125Z,5.38
2022-09-07T15:34:19.211Z,8.35
2022-09-07T15:36:52.506Z,5.28
2022-09-07T15:39:25.993Z,5.82
2022-09-07T15:41:53.934Z,6.10
2022-09-07T15:44:26.173Z,5.20
2022-09-07T15:49:49.529Z,10.05
2022-09-07T15:52:18.752Z,5.25
2022-09-07T15:54:46.307Z,6.93
2022-09-07T16:00:00.966Z,4.47
2022-09-07T16:05:16.004Z,5.07
2022-09-07T16:10:31.882Z,11.30
2022-09-07T16:13:09.685Z,4.93
2022-09-07T16:15:45.842Z,5.15
2022-09-07T16:18:18.039Z,7.35
2022-09-07T16:20:46.351Z,8.48
2022-09-07T16:23:16.167Z,6.55
2022-09-07T16:25:57.514Z,9.18
2022-09-07T16:28:25.515Z,9.23
2022-09-07T16:30:53.162Z,5.18
2022-09-07T16:33:20.796Z,5.00
2022-09-07T16:36:02.717Z,6.90
2022-09-07T16:38:47.765Z,4.70
2022-09-07T16:41:20.475Z,6.53
2022-09-07T16:43:48.088Z,6.90
2022-09-07T16:46:17.556Z,6.05
2022-09-07T16:48:45.152Z,5.70
2022-09-07T16:51:14.427Z,7.55
2022-09-07T16:53:41.749Z,6.97
2022-09-07T16:56:16.662Z,6.75
2022-09-07T16:58:47.979Z,7.03
2022-09-07T17:01:21.486Z,6.70
2022-09-07T17:03:51.384Z,6.97
2022-09-07T17:06:21.459Z,10.68
2022-09-07T17:08:49.172Z,7.70
2022-09-07T17:11:23.491Z,9.93
2022-09-07T17:13:51.914Z,8.05
2022-09-07T17:16:22.701Z,7.20
2022-09-07T17:21:40.439Z,6.47
2022-09-07T17:24:11.074Z,8.82
2022-09-07T17:26:39.525Z,7.43
2022-09-07T17:29:10.481Z,8.57
2022-09-07T17:34:30.519Z,6.57
2022-09-07T17:37:01.104Z,6.60
2022-09-07T17:39:30.701Z,8.68
2022-09-07T17:48:30.295Z,12.75
2022-09-07T17:51:15.167Z,7.85
2022-09-07T17:53:49.256Z,8.95
2022-09-07T17:56:20.107Z,11.35
2022-09-07T18:00:10.690Z,9.48
2022-09-07T18:01:44.167Z,6.75
2022-09-07T18:04:17.429Z,7.47
2022-09-07T18:06:49.123Z,8.85
2022-09-07T18:09:18.528Z,7.18
2022-09-07T18:11:49.580Z,7.38
2022-09-07T18:14:19.556Z,6.75
2022-09-07T18:16:50.113Z,7.32
2022-09-07T18:24:46.351Z,7.65
2022-09-07T18:27:13.964Z,6.78
2022-09-07T18:29:41.433Z,7.90
2022-09-07T18:32:10.154Z,9.85
2022-09-07T18:34:40.768Z,10.27
2022-09-07T18:37:23.842Z,13.18
2022-09-07T18:39:51.155Z,9.52
2022-09-07T18:42:18.542Z,10.27
2022-09-07T18:47:35.136Z,8.93
2022-09-07T18:50:03.068Z,9.80
2022-09-07T18:55:24.013Z,9.80
2022-09-07T18:57:51.428Z,13.68
2022-09-07T19:00:18.812Z,11.20
2022-09-07T19:02:50.963Z,11.75
2022-09-07T19:08:06.716Z,8.77
2022-09-07T19:10:36.285Z,8.85
2022-09-07T19:13:04.766Z,12.27
2022-09-07T19:15:37.114Z,10.23
2022-09-07T19:18:06.171Z,11.98
2022-09-07T19:20:35.247Z,16.42
2022-09-07T19:23:03.536Z,17.77
2022-09-07T19:25:30.833Z,10.88
2022-09-07T19:27:58.454Z,13.88
2022-09-07T19:30:25.825Z,11.82
2022-09-07T19:32:58.701Z,11.20
2022-09-07T19:35:35.458Z,9.55
2022-09-07T19:38:02.926Z,9.90
2022-09-07T19:40:30.438Z,10.63
2022-09-07T19:42:57.954Z,15.75
2022-09-07T19:45:25.380Z,15.68
2022-09-07T19:47:52.701Z,26.98
2022-09-07T19:50:22.449Z,28.10
2022-09-07T19:52:49.875Z,41.22
2022-09-07T19:55:17.449Z,17.02
2022-09-07T19:57:48.227Z,25.30
2022-09-07T20:00:16.214Z,21.15
2022-09-07T20:02:43.698Z,9.23
2022-09-07T20:05:12.165Z,13.15
2022-09-07T20:07:39.828Z,15.23
2022-09-07T20:10:07.591Z,19.80
2022-09-07T20:12:34.977Z,14.43
2022-09-07T20:15:03.070Z,20.40
2022-09-07T20:17:35.081Z,13.98
2022-09-07T20:20:06.793Z,11.88
2022-09-07T20:22:35.674Z,9.95
2022-09-07T20:25:03.460Z,14.70
2022-09-07T20:27:30.967Z,10.43
2022-09-07T20:29:58.226Z,10.13
2022-09-07T20:32:28.470Z,9.40
2022-09-07T20:34:56.871Z,12.35
2022-09-07T20:37:28.616Z,10.82
2022-09-07T20:39:56.012Z,8.80
2022-09-07T20:42:23.336Z,10.13
2022-09-07T20:44:51.141Z,12.20
2022-09-07T20:47:18.380Z,32.03
2022-09-07T20:49:45.989Z,29.58
2022-09-07T20:52:13.458Z,24.10
2022-09-07T20:54:40.894Z,25.17
2022-09-07T20:57:08.181Z,14.07
2022-09-07T20:59:35.607Z,9.95
2022-09-07T21:02:02.947Z,16.95
2022-09-07T21:04:30.405Z,16.63
2022-09-07T21:06:57.818Z,21.05
2022-09-07T21:09:25.232Z,25.27
2022-09-07T21:11:56.775Z,22.55
2022-09-07T21:14:24.595Z,25.17
2022-09-07T21:16:51.875Z,16.05
2022-09-07T21:19:19.246Z,13.13
2022-09-07T21:21:46.687Z,15.27
2022-09-07T21:24:20.406Z,22.52
2022-09-07T21:26:48.893Z,35.17
2022-09-07T21:29:21.698Z,33.17
2022-09-07T21:31:49.372Z,46.60
2022-09-07T21:34:17.372Z,30.92
2022-09-07T21:36:45.040Z,33.67
2022-09-07T21:39:14.606Z,28.17
2022-09-07T21:41:43.365Z,55.50
2022-09-07T21:44:11.798Z,33.33
2022-09-07T21:46:39.268Z,22.27
2022-09-07T21:49:06.731Z,13.77
2022-09-07T21:51:34.725Z,19.88
2022-09-07T21:54:02.684Z,19.00
2022-09-07T21:56:31.557Z,16.73
2022-09-07T21:59:01.559Z,16.17
2022-09-07T22:01:30.609Z,20.03
2022-09-07T22:04:02.803Z,17.27
2022-09-07T22:06:32.617Z,15.23
2022-09-07T22:09:00.637Z,18.63
2022-09-07T22:11:29.946Z,17.10
2022-09-07T22:13:59.973Z,14.85
2022-09-07T22:16:27.537Z,18.48
2022-09-07T22:18:55.161Z,19.63
2022-09-07T22:21:27.545Z,16.98
2022-09-07T22:24:03.521Z,17.08
2022-09-07T22:26:33.799Z,16.45
2022-09-07T22:29:01.351Z,14.25
2022-09-07T22:31:34.135Z,19.38
2022-09-07T22:34:03.517Z,23.00
2022-09-07T22:36:33.427Z,20.08
2022-09-07T22:39:04.724Z,17.33
2022-09-07T22:41:34.572Z,45.78
2022-09-07T22:44:02.311Z,27.98
2022-09-07T22:46:31.294Z,20.15
2022-09-07T22:48:59.664Z,16.45
2022-09-07T22:51:28.027Z,22.95
2022-09-07T22:53:56.268Z,14.63
2022-09-07T22:56:26.880Z,16.03
2022-09-07T22:59:05.776Z,15.05
2022-09-07T23:01:33.760Z,18.83
2022-09-07T23:04:01.917Z,16.73
2022-09-07T23:06:31.017Z,14.20
2022-09-07T23:09:00.198Z,16.98
2022-09-07T23:11:27.934Z,15.95
2022-09-07T23:13:59.323Z,16.67
2022-09-07T23:16:28.469Z,19.15
2022-09-07T23:18:57.973Z,17.05
2022-09-07T23:21:25.690Z,25.57
2022-09-07T23:23:58.671Z,30.05
2022-09-07T23:26:28.187Z,38.53
2022-09-07T23:28:58.029Z,27.55
2022-09-07T23:31:26.853Z,16.27
2022-09-07T23:33:54.654Z,16.00
2022-09-07T23:36:22.163Z,18.70
2022-09-07T23:38:49.615Z,16.83
2022-09-07T23:41:20.310Z,18.92
2022-09-07T23:43:48.604Z,21.13
2022-09-07T23:46:16.384Z,22.97
2022-09-07T23:48:45.322Z,18.70
2022-09-07T23:51:13.798Z,14.00
2022-09-07T23:53:41.639Z,19.02
2022-09-07T23:56:09.204Z,17.83
2022-09-07T23:58:37.069Z,19.13
